createdAt,value
2022-08-31T00:00:18.243Z,10.98
2022-08-31T00:03:03.895Z,11.48
2022-08-31T00:05:30.905Z,11.45
2022-08-31T00:07:58.104Z,9.80
2022-08-31T00:10:31.972Z,9.15
2022-08-31T00:13:02.962Z,12.95
2022-08-31T00:15:30.672Z,14.32
2022-08-31T00:17:58.374Z,13.35
2022-08-31T00:20:33.146Z,11.52
2022-08-31T00:23:04.148Z,11.27
2022-08-31T00:25:32.147Z,12.30
2022-08-31T00:27:59.301Z,12.55
2022-08-31T00:30:26.693Z,15.73
2022-08-31T00:32:53.776Z,15.13
2022-08-31T00:35:24.324Z,10.82
2022-08-31T00:37:51.318Z,12.52
2022-08-31T00:40:18.788Z,12.65
2022-08-31T00:42:45.884Z,11.13
2022-08-31T00:45:13.061Z,11.88
2022-08-31T00:47:40.208Z,14.60
2022-08-31T00:50:10.624Z,11.50
2022-08-31T00:52:41.376Z,12.75
2022-08-31T00:55:21.733Z,10.65
2022-08-31T00:57:53.022Z,10.20
2022-08-31T01:00:27.256Z,11.18
2022-08-31T01:02:55.909Z,11.10
2022-08-31T01:05:23.601Z,10.85
2022-08-31T01:07:53.060Z,10.77
2022-08-31T01:10:24.045Z,11.40
2022-08-31T01:12:55.652Z,8.60
2022-08-31T01:15:25.259Z,8.70
2022-08-31T01:17:55.895Z,9.77
2022-08-31T01:20:37.836Z,11.30
2022-08-31T01:23:16.106Z,7.53
2022-08-31T01:25:46.230Z,8.90
2022-08-31T01:28:13.656Z,10.10
2022-08-31T01:30:42.799Z,9.45
2022-08-31T01:33:11.645Z,7.75
2022-08-31T01:35:42.945Z,8.40
2022-08-31T01:38:11.092Z,7.85
2022-08-31T01:40:49.565Z,8.13
2022-08-31T01:43:16.948Z,7.65
2022-08-31T01:45:44.474Z,8.90
2022-08-31T01:48:11.710Z,6.80
2022-08-31T01:50:39.414Z,9.38
2022-08-31T01:53:06.625Z,8.10
2022-08-31T01:55:33.602Z,6.72
2022-08-31T01:58:01.346Z,7.05
2022-08-31T02:00:56.282Z,6.57
2022-08-31T02:03:23.323Z,6.82
2022-08-31T02:08:19.107Z,7.13
2022-08-31T02:10:46.559Z,7.70
2022-08-31T02:13:14.091Z,7.78
2022-08-31T02:15:41.115Z,7.13
2022-08-31T02:18:08.763Z,6.63
2022-08-31T02:20:39.399Z,6.53
2022-08-31T02:23:06.487Z,7.15
2022-08-31T02:25:34.539Z,6.70
2022-08-31T02:28:03.253Z,7.93
2022-08-31T02:30:30.364Z,7.25
2022-08-31T02:32:57.867Z,9.55
2022-08-31T02:35:24.945Z,7.65
2022-08-31T02:37:51.950Z,7.10
2022-08-31T02:40:19.301Z,7.43
2022-08-31T02:42:52.724Z,7.43
2022-08-31T02:45:23.037Z,8.02
2022-08-31T02:47:50.513Z,7.95
2022-08-31T02:50:28.394Z,7.90
2022-08-31T02:52:56.950Z,8.02
2022-08-31T02:55:25.462Z,8.38
2022-08-31T02:57:53.123Z,8.65
2022-08-31T03:00:22.886Z,9.18
2022-08-31T03:02:51.011Z,9.45
2022-08-31T03:05:18.858Z,12.05
2022-08-31T03:07:45.905Z,9.48
2022-08-31T03:10:14.939Z,8.52
2022-08-31T03:12:43.443Z,8.50
2022-08-31T03:15:11.215Z,9.23
2022-08-31T03:17:38.473Z,8.85
2022-08-31T03:20:07.955Z,8.47
2022-08-31T03:22:35.830Z,9.35
2022-08-31T03:25:05.401Z,9.52
2022-08-31T03:27:32.638Z,9.40
2022-08-31T03:30:00.773Z,8.77
2022-08-31T03:32:31.521Z,8.40
2022-08-31T03:35:00.575Z,10.23
2022-08-31T03:37:28.159Z,10.17
2022-08-31T03:40:02.136Z,8.48
2022-08-31T03:44:59.703Z,8.73
2022-08-31T03:47:31.830Z,9.88
2022-08-31T03:50:00.210Z,8.00
2022-08-31T03:52:39.268Z,7.97
2022-08-31T03:55:14.159Z,10.80
2022-08-31T03:57:42.208Z,8.10
2022-08-31T04:00:09.970Z,9.18
2022-08-31T04:02:40.589Z,9.90
2022-08-31T04:05:27.694Z,9.80
2022-08-31T04:08:14.625Z,8.63
2022-08-31T04:10:46.799Z,9.20
2022-08-31T04:13:35.574Z,11.25
2022-08-31T04:16:23.587Z,9.95
2022-08-31T04:19:02.867Z,8.88
2022-08-31T04:21:38.763Z,13.75
2022-08-31T04:24:08.278Z,10.45
2022-08-31T04:26:37.881Z,11.80
2022-08-31T04:29:12.238Z,11.38
2022-08-31T04:31:40.793Z,13.60
2022-08-31T04:34:07.888Z,10.60
2022-08-31T04:36:35.214Z,12.82
2022-08-31T04:39:04.252Z,12.45
2022-08-31T04:41:33.393Z,12.90
2022-08-31T04:44:02.026Z,11.90
2022-08-31T04:46:31.151Z,9.85
2022-08-31T04:48:58.669Z,9.15
2022-08-31T04:51:28.699Z,8.85
2022-08-31T04:53:56.485Z,9.38
2022-08-31T04:56:26.662Z,8.38
2022-08-31T04:59:00.090Z,8.55
2022-08-31T05:01:38.120Z,8.48
2022-08-31T05:04:29.369Z,9.77
2022-08-31T05:06:56.729Z,11.10
2022-08-31T05:09:24.245Z,8.27
2022-08-31T05:11:54.513Z,8.32
2022-08-31T05:14:24.378Z,10.10
2022-08-31T05:17:01.466Z,8.15
2022-08-31T05:19:32.172Z,8.23
2022-08-31T05:21:59.574Z,9.43
2022-08-31T05:24:26.829Z,10.90
2022-08-31T05:26:56.318Z,7.97
2022-08-31T05:29:25.742Z,9.07
2022-08-31T05:32:11.574Z,8.32
2022-08-31T05:34:39.037Z,12.95
2022-08-31T05:37:06.101Z,9.82
2022-08-31T05:39:33.845Z,8.40
2022-08-31T05:42:00.982Z,8.45
2022-08-31T05:44:29.451Z,9.02
2022-08-31T05:47:04.069Z,9.73
2022-08-31T05:49:32.692Z,13.80
2022-08-31T05:52:01.441Z,9.70
2022-08-31T05:54:30.209Z,9.93
2022-08-31T05:57:01.072Z,8.57
2022-08-31T05:59:30.113Z,9.20
2022-08-31T06:01:58.261Z,7.88
2022-08-31T06:04:28.465Z,9.40
2022-08-31T06:06:55.726Z,8.30
2022-08-31T06:09:26.113Z,9.55
2022-08-31T06:11:54.405Z,9.02
2022-08-31T06:14:24.804Z,7.55
2022-08-31T06:16:56.733Z,8.40
2022-08-31T06:19:24.480Z,7.78
2022-08-31T06:21:53.155Z,7.68
2022-08-31T06:24:25.589Z,8.77
2022-08-31T06:26:58.809Z,7.55
2022-08-31T06:29:33.499Z,8.65
2022-08-31T06:32:08.343Z,8.38
2022-08-31T06:34:40.267Z,8.98
2022-08-31T06:37:10.921Z,7.40
2022-08-31T06:40:12.312Z,9.52
2022-08-31T06:43:08.896Z,9.27
2022-08-31T06:46:02.487Z,8.18
2022-08-31T06:48:33.653Z,12.57
2022-08-31T06:53:30.358Z,6.10
2022-08-31T06:55:57.347Z,7.95
2022-08-31T06:58:43.231Z,8.38
2022-08-31T07:01:34.806Z,7.47
2022-08-31T07:04:19.756Z,8.35
2022-08-31T07:06:47.508Z,7.20
2022-08-31T07:09:17.934Z,6.40
2022-08-31T07:11:47.757Z,7.55
2022-08-31T07:14:17.334Z,6.07
2022-08-31T07:16:45.787Z,6.18
2022-08-31T07:19:14.375Z,7.03
2022-08-31T07:21:45.356Z,6.82
2022-08-31T07:24:14.250Z,6.53
2022-08-31T07:26:45.288Z,7.38
2022-08-31T07:29:17.052Z,7.50
2022-08-31T07:31:48.906Z,6.32
2022-08-31T07:34:25.958Z,7.63
2022-08-31T07:37:34.504Z,5.75
2022-08-31T07:40:24.104Z,7.00
2022-08-31T07:42:52.058Z,5.28
2022-08-31T07:45:23.249Z,6.13
2022-08-31T07:47:56.336Z,5.07
2022-08-31T07:50:31.801Z,5.00
2022-08-31T07:53:21.553Z,5.15
2022-08-31T07:56:11.650Z,4.93
2022-08-31T07:58:42.864Z,5.30
2022-08-31T08:01:11.940Z,6.13
2022-08-31T08:03:44.225Z,4.55
2022-08-31T08:06:32.529Z,4.97
2022-08-31T08:09:24.889Z,4.75
2022-08-31T08:12:06.433Z,4.50
2022-08-31T08:15:13.158Z,4.13
2022-08-31T08:17:59.205Z,4.35
2022-08-31T08:20:38.040Z,4.70
2022-08-31T08:23:13.696Z,4.32
2022-08-31T08:26:09.521Z,5.00
2022-08-31T08:29:05.674Z,5.45
2022-08-31T08:31:34.719Z,6.07
2022-08-31T08:34:02.073Z,4.85
2022-08-31T08:36:35.937Z,5.10
2022-08-31T08:39:06.478Z,4.90
2022-08-31T08:41:36.947Z,7.97
2022-08-31T08:44:07.980Z,4.72
2022-08-31T08:46:44.247Z,6.28
2022-08-31T08:49:21.493Z,5.22
2022-08-31T08:51:54.408Z,5.40
2022-08-31T08:54:35.205Z,5.55
2022-08-31T08:57:14.399Z,5.72
2022-08-31T08:59:47.872Z,6.13
2022-08-31T09:02:20.487Z,5.72
2022-08-31T09:05:14.330Z,6.78
2022-08-31T09:08:05.236Z,5.82
2022-08-31T09:10:42.639Z,4.93
2022-08-31T09:13:50.643Z,4.78
2022-08-31T09:16:41.085Z,5.25
2022-08-31T09:19:15.888Z,6.70
2022-08-31T09:22:03.368Z,6.03
2022-08-31T09:24:30.549Z,6.53
2022-08-31T09:27:48.146Z,5.20
2022-08-31T09:30:36.648Z,5.70
2022-08-31T09:33:04.246Z,6.35
2022-08-31T09:35:45.986Z,5.97
2022-08-31T09:38:27.178Z,5.70
2022-08-31T09:40:54.288Z,6.38
2022-08-31T09:43:22.456Z,5.47
2022-08-31T09:45:52.615Z,6.53
2022-08-31T09:48:59.555Z,5.63
2022-08-31T09:51:33.844Z,6.25
2022-08-31T09:54:34.182Z,7.55
2022-08-31T09:57:04.292Z,6.40
2022-08-31T09:59:34.712Z,4.95
2022-08-31T10:02:02.637Z,6.32
2022-08-31T10:04:37.099Z,6.07
2022-08-31T10:07:25.110Z,5.15
2022-08-31T10:09:58.159Z,6.25
2022-08-31T10:12:51.598Z,7.80
2022-08-31T10:15:32.199Z,5.90
2022-08-31T10:18:23.026Z,5.60
2022-08-31T10:20:58.250Z,5.35
2022-08-31T10:23:34.998Z,5.75
2022-08-31T10:26:17.125Z,6.00
2022-08-31T10:28:51.945Z,5.85
2022-08-31T10:31:30.353Z,6.28
2022-08-31T10:34:21.353Z,5.93
2022-08-31T10:36:54.057Z,5.95
2022-08-31T10:39:36.872Z,5.95
2022-08-31T10:42:12.245Z,6.35
2022-08-31T10:45:03.624Z,7.35
2022-08-31T10:47:41.526Z,6.70
2022-08-31T10:50:10.575Z,6.57
2022-08-31T10:55:25.806Z,6.40
2022-08-31T10:58:15.095Z,7.07
2022-08-31T11:00:57.263Z,6.72
2022-08-31T11:03:35.241Z,6.47
2022-08-31T11:06:02.284Z,5.95
2022-08-31T11:08:32.203Z,6.10
2022-08-31T11:10:59.923Z,6.05
2022-08-31T11:14:00.437Z,6.38
2022-08-31T11:16:32.874Z,5.40
2022-08-31T11:19:11.488Z,6.32
2022-08-31T11:22:11.431Z,8.55
2022-08-31T11:24:41.269Z,12.98
2022-08-31T11:27:23.249Z,12.57
2022-08-31T11:29:59.235Z,9.38
2022-08-31T11:32:29.160Z,7.13
2022-08-31T11:35:08.507Z,10.02
2022-08-31T11:40:42.048Z,6.55
2022-08-31T11:43:32.965Z,6.03
2022-08-31T11:46:28.761Z,6.32
2022-08-31T11:48:55.886Z,5.97
2022-08-31T11:51:41.723Z,6.57
2022-08-31T11:54:42.053Z,5.75
2022-08-31T11:57:16.077Z,5.70
2022-08-31T11:59:47.808Z,6.60
2022-08-31T12:02:21.273Z,7.15
2022-08-31T12:05:03.306Z,7.18
2022-08-31T12:07:36.661Z,6.25
2022-08-31T12:10:42.950Z,5.78
2022-08-31T12:13:23.203Z,6.15
2022-08-31T12:16:10.829Z,6.50
2022-08-31T12:18:41.343Z,6.57
2022-08-31T12:21:48.361Z,8.27
2022-08-31T12:24:33.873Z,5.75
2022-08-31T12:27:02.837Z,6.72
2022-08-31T12:29:36.471Z,7.65
2022-08-31T12:32:28.686Z,5.95
2022-08-31T12:35:07.497Z,6.70
2022-08-31T12:37:36.971Z,6.40
2022-08-31T12:40:19.811Z,5.72
2022-08-31T12:42:55.589Z,6.70
2022-08-31T12:46:13.417Z,6.75
2022-08-31T12:49:22.006Z,6.03
2022-08-31T12:51:56.872Z,7.72
2022-08-31T12:54:49.591Z,6.70
2022-08-31T12:57:26.795Z,6.18
2022-08-31T13:00:21.868Z,6.80
2022-08-31T13:02:53.210Z,7.95
2022-08-31T13:05:33.645Z,6.60
2022-08-31T13:08:01.124Z,6.78
2022-08-31T13:10:34.783Z,8.50
2022-08-31T13:13:05.546Z,6.85
2022-08-31T13:15:39.619Z,6.97
2022-08-31T13:18:22.179Z,7.38
2022-08-31T13:20:54.919Z,7.05
2022-08-31T13:23:38.613Z,7.10
2022-08-31T13:26:20.055Z,6.88
2022-08-31T13:28:56.166Z,6.20
2022-08-31T13:31:35.194Z,7.53
2022-08-31T13:36:34.463Z,8.50
2022-08-31T13:39:39.217Z,6.25
2022-08-31T13:42:09.764Z,6.65
2022-08-31T13:44:44.236Z,7.00
2022-08-31T13:47:21.720Z,7.10
2022-08-31T13:49:53.305Z,8.65
2022-08-31T13:52:30.585Z,7.30
2022-08-31T13:55:05.202Z,7.18
2022-08-31T13:57:35.965Z,8.73
2022-08-31T14:00:27.874Z,7.95
2022-08-31T14:02:56.103Z,10.10
2022-08-31T14:05:32.337Z,7.77
2022-08-31T14:08:04.471Z,6.82
2022-08-31T14:10:39.462Z,7.70
2022-08-31T14:13:18.689Z,7.45
2022-08-31T14:15:53.633Z,7.38
2022-08-31T14:18:37.679Z,7.05
2022-08-31T14:21:21.039Z,7.07
2022-08-31T14:24:01.683Z,7.28
2022-08-31T14:26:32.252Z,7.07
2022-08-31T14:29:12.540Z,7.75
2022-08-31T14:31:52.600Z,8.05
2022-08-31T14:34:32.374Z,7.90
2022-08-31T14:37:19.895Z,6.55
2022-08-31T14:39:53.935Z,7.68
2022-08-31T14:42:27.672Z,6.43
2022-08-31T14:44:59.734Z,7.22
2022-08-31T14:47:29.182Z,6.63
2022-08-31T14:50:05.521Z,6.32
2022-08-31T14:52:41.517Z,6.13
2022-08-31T14:55:11.375Z,7.03
2022-08-31T14:57:45.676Z,6.57
2022-08-31T15:00:18.930Z,6.47
2022-08-31T15:02:49.913Z,8.50
2022-08-31T15:05:18.281Z,7.00
2022-08-31T15:07:47.091Z,6.43
2022-08-31T15:10:14.163Z,6.18
2022-08-31T15:12:41.172Z,5.93
2022-08-31T15:15:09.983Z,7.07
2022-08-31T15:17:39.692Z,5.57
2022-08-31T15:20:08.593Z,7.40
2022-08-31T15:22:37.551Z,6.80
2022-08-31T15:25:05.253Z,6.07
2022-08-31T15:27:32.213Z,5.80
2022-08-31T15:30:08.236Z,6.30
2022-08-31T15:32:42.344Z,6.15
2022-08-31T15:35:14.399Z,7.00
2022-08-31T15:37:41.530Z,6.97
2022-08-31T15:40:10.912Z,7.03
2022-08-31T15:42:39.688Z,9.35
2022-08-31T15:45:07.426Z,9.57
2022-08-31T15:47:57.562Z,7.35
2022-08-31T15:50:31.729Z,9.27
2022-08-31T15:53:08.299Z,9.38
2022-08-31T15:55:40.918Z,9.20
2022-08-31T15:58:09.608Z,9.60
2022-08-31T16:00:37.557Z,9.45
2022-08-31T16:03:06.261Z,8.75
2022-08-31T16:05:39.554Z,10.77
2022-08-31T16:08:10.101Z,8.63
2022-08-31T16:10:41.873Z,9.40
2022-08-31T16:13:09.533Z,12.20
2022-08-31T16:15:38.806Z,10.45
2022-08-31T16:18:06.364Z,7.88
2022-08-31T16:20:34.784Z,10.32
2022-08-31T16:23:07.769Z,18.75
2022-08-31T16:25:48.239Z,9.15
2022-08-31T16:28:20.128Z,8.32
2022-08-31T16:30:48.104Z,11.57
2022-08-31T16:33:15.043Z,8.40
2022-08-31T16:35:47.290Z,7.25
2022-08-31T16:38:14.669Z,8.70
2022-08-31T16:40:42.165Z,6.90
2022-08-31T16:43:09.723Z,7.53
2022-08-31T16:45:40.791Z,7.22
2022-08-31T16:48:29.368Z,6.80
2022-08-31T16:50:58.189Z,6.95
2022-08-31T16:53:25.960Z,6.70
2022-08-31T16:55:53.500Z,6.68
2022-08-31T16:58:47.596Z,8.07
2022-08-31T17:01:14.033Z,7.47
2022-08-31T17:03:46.044Z,6.60
2022-08-31T17:06:13.624Z,6.63
2022-08-31T17:08:47.353Z,7.68
2022-08-31T17:11:28.671Z,6.40
2022-08-31T17:13:58.482Z,7.15
2022-08-31T17:16:35.205Z,6.40
2022-08-31T17:19:06.713Z,6.80
2022-08-31T17:21:34.945Z,6.50
2022-08-31T17:24:04.882Z,5.40
2022-08-31T17:26:34.770Z,5.50
2022-08-31T17:31:34.221Z,7.00
2022-08-31T17:34:02.005Z,5.85
2022-08-31T17:36:34.278Z,5.80
2022-08-31T17:39:04.910Z,6.43
2022-08-31T17:41:32.065Z,7.35
2022-08-31T17:44:00.112Z,6.35
2022-08-31T17:46:27.670Z,7.43
2022-08-31T17:48:56.197Z,6.47
2022-08-31T17:51:27.326Z,8.10
2022-08-31T17:54:07.755Z,7.03
2022-08-31T17:57:00.701Z,6.20
2022-08-31T17:59:31.996Z,6.07
2022-08-31T18:02:01.706Z,9.57
2022-08-31T18:04:31.333Z,6.57
2022-08-31T18:06:58.651Z,6.63
2022-08-31T18:09:28.653Z,6.85
2022-08-31T18:11:56.456Z,6.10
2022-08-31T18:14:29.431Z,7.47
2022-08-31T18:16:58.581Z,7.13
2022-08-31T18:19:28.279Z,7.75
2022-08-31T18:22:00.009Z,6.78
2022-08-31T18:24:28.040Z,9.07
2022-08-31T18:26:56.846Z,7.10
2022-08-31T18:29:24.911Z,7.60
2022-08-31T18:31:54.335Z,7.18
2022-08-31T18:34:23.929Z,7.68
2022-08-31T18:39:50.145Z,8.88
2022-08-31T18:42:32.399Z,6.93
2022-08-31T18:45:18.344Z,5.93
2022-08-31T18:48:07.150Z,7.00
2022-08-31T18:50:37.271Z,6.05
2022-08-31T18:53:11.200Z,6.47
2022-08-31T18:55:44.438Z,6.88
2022-08-31T18:58:11.977Z,7.80
2022-08-31T19:00:40.478Z,6.38
2022-08-31T19:03:07.981Z,6.80
2022-08-31T19:05:38.408Z,6.78
2022-08-31T19:08:05.774Z,7.25
2022-08-31T19:10:34.908Z,6.10
2022-08-31T19:13:05.429Z,6.03
2022-08-31T19:15:39.345Z,6.00
2022-08-31T19:18:07.192Z,7.03
2022-08-31T19:20:35.700Z,6.80
2022-08-31T19:23:02.857Z,6.83
2022-08-31T19:25:32.054Z,7.80
2022-08-31T19:28:01.752Z,6.55
2022-08-31T19:30:28.991Z,7.85
2022-08-31T19:32:56.649Z,7.82
2022-08-31T19:35:26.919Z,6.85
2022-08-31T19:37:56.608Z,6.35
2022-08-31T19:40:35.556Z,7.95
2022-08-31T19:45:51.039Z,6.85
2022-08-31T19:48:23.395Z,6.75
2022-08-31T19:50:51.344Z,7.97
2022-08-31T19:53:21.945Z,7.47
2022-08-31T19:55:51.390Z,6.63
2022-08-31T19:58:25.499Z,6.85
2022-08-31T20:01:00.933Z,6.63
2022-08-31T20:03:34.420Z,7.00
2022-08-31T20:06:10.416Z,6.70
2022-08-31T20:08:37.721Z,7.50
2022-08-31T20:11:07.979Z,7.03
2022-08-31T20:13:38.540Z,6.78
2022-08-31T20:16:08.379Z,7.25
2022-08-31T20:18:42.711Z,9.32
2022-08-31T20:21:18.145Z,7.00
2022-08-31T20:23:50.165Z,6.75
2022-08-31T20:26:21.380Z,8.82
2022-08-31T20:28:53.943Z,6.32
2022-08-31T20:31:21.179Z,7.80
2022-08-31T20:33:48.273Z,7.13
2022-08-31T20:36:22.799Z,6.95
2022-08-31T20:38:56.883Z,6.28
2022-08-31T20:41:25.834Z,7.00
2022-08-31T20:43:52.794Z,5.85
2022-08-31T20:46:38.144Z,6.60
2022-08-31T20:49:23.960Z,5.70
2022-08-31T20:51:51.850Z,6.63
2022-08-31T20:54:18.954Z,6.30
2022-08-31T20:56:46.257Z,7.40
2022-08-31T20:59:13.277Z,5.65
2022-08-31T21:01:40.973Z,6.43
2022-08-31T21:04:08.330Z,6.68
2022-08-31T21:06:39.362Z,5.90
2022-08-31T21:09:10.200Z,4.90
2022-08-31T21:11:40.789Z,6.65
2022-08-31T21:14:08.175Z,5.53
2022-08-31T21:16:35.971Z,5.43
2022-08-31T21:19:06.709Z,5.70
2022-08-31T21:21:36.484Z,5.55
2022-08-31T21:24:03.932Z,5.40
2022-08-31T21:26:36.585Z,5.18
2022-08-31T21:29:17.309Z,4.70
2022-08-31T21:31:56.833Z,5.90
2022-08-31T21:34:27.246Z,5.05
2022-08-31T21:36:57.620Z,5.00
2022-08-31T21:39:25.286Z,5.00
2022-08-31T21:41:52.360Z,5.57
2022-08-31T21:44:25.774Z,4.90
2022-08-31T21:46:52.915Z,6.72
2022-08-31T21:49:20.075Z,6.15
2022-08-31T21:51:55.068Z,6.22
2022-08-31T21:54:26.252Z,5.53
2022-08-31T21:56:56.402Z,5.30
2022-08-31T21:59:25.885Z,5.80
2022-08-31T22:01:57.537Z,5.75
2022-08-31T22:04:26.097Z,5.50
2022-08-31T22:06:53.942Z,5.07
2022-08-31T22:09:23.169Z,5.70
2022-08-31T22:11:55.022Z,5.85
2022-08-31T22:14:26.518Z,6.10
2022-08-31T22:16:58.070Z,6.55
2022-08-31T22:19:28.652Z,7.22
2022-08-31T22:21:59.192Z,5.88
2022-08-31T22:24:29.691Z,5.65
2022-08-31T22:26:59.800Z,4.97
2022-08-31T22:29:33.478Z,5.88
2022-08-31T22:32:04.759Z,4.85
2022-08-31T22:34:31.851Z,5.97
2022-08-31T22:36:58.838Z,5.22
2022-08-31T22:39:29.085Z,5.15
2022-08-31T22:41:58.211Z,5.63
2022-08-31T22:44:27.326Z,5.70
2022-08-31T22:46:56.547Z,5.10
2022-08-31T22:49:24.530Z,5.35
2022-08-31T22:51:51.572Z,4.93
2022-08-31T22:54:19.961Z,5.25
2022-08-31T22:56:47.858Z,6.03
2022-08-31T22:59:21.110Z,6.43
2022-08-31T23:01:53.147Z,5.60
2022-08-31T23:04:22.066Z,5.10
2022-08-31T23:06:51.847Z,5.60
2022-08-31T23:09:27.753Z,4.80
2022-08-31T23:11:56.552Z,5.25
2022-08-31T23:14:24.202Z,5.40
2022-08-31T23:16:58.073Z,4.82
2022-08-31T23:19:33.481Z,5.32
2022-08-31T23:22:01.768Z,5.13
2022-08-31T23:24:47.109Z,4.60
2022-08-31T23:27:17.888Z,5.45
2022-08-31T23:29:48.741Z,5.22
2022-08-31T23:32:21.392Z,5.82
2022-08-31T23:34:52.735Z,5.68
2022-08-31T23:37:23.207Z,5.93
2022-08-31T23:39:54.590Z,5.60
2022-08-31T23:42:23.666Z,5.75
2022-08-31T23:44:51.219Z,6.32
2022-08-31T23:47:21.596Z,4.65
2022-08-31T23:49:53.482Z,4.60
2022-08-31T23:52:24.329Z,7.22
2022-08-31T23:55:01.068Z,5.68
2022-08-31T23:57:32.909Z,5.00
